GABS/BKO METAR and TAF weather

Enter ICAO airport designator
Station Type Date Time Source
GABS METAR 2022/09/26 09:00 UTC NOAA

GABS 260900Z 22004KT 160V280 9999 FEW016 25/22 Q1016 NOSIG


Station Type Date Time Source
GABS Decoded METAR 2022/09/26 09:00 UTC NOAA

Bamako / Senou, Mali (GABS) 12-32N 007-57W 381M
Sep 26, 2022 - 05:00 AM EDT / 2022.09.26 0900 UTC
Wind: from the SW (220 degrees) at 5 MPH (4 KT) (direction variable):0
Visibility: greater than 7 mile(s):0
Sky conditions: mostly clear
Temperature: 77 F (25 C)
Dew Point: 71 F (22 C)
Relative Humidity: 83%
Pressure (altimeter): 30.00 in. Hg (1016 hPa)
ob: GABS 260900Z 22004KT 160V280 9999 FEW016 25/22 Q1016 NOSIG
cycle: 9

Station Type Date Time Source
GABS TAF 2022/09/26 06:27 UTC NOAA

TAF TAF GABS 260500Z 2606/2712 24004KT 9999 SCT020
TEMPO 2606/2608 TSRA BKN020 FEW033CB
TEMPO 2614/2620 VRB20G35KT 4000 TSRA SCT020 FEW033CB

Example: see airport list